sensor_id;sensor_type;location;lat;lon;timestamp;temperature;humidity
31729;DHT22;18309;43.658;1.312;2024-01-30T00:01:16;12.80;99.90
31729;DHT22;18309;43.658;1.312;2024-01-30T00:03:42;12.70;99.90
31729;DHT22;18309;43.658;1.312;2024-01-30T00:06:11;12.80;99.90
31729;DHT22;18309;43.658;1.312;2024-01-30T00:08:37;12.80;99.90
31729;DHT22;18309;43.658;1.312;2024-01-30T00:11:03;12.70;99.90
31729;DHT22;18309;43.658;1.312;2024-01-30T00:13:29;12.70;99.90
31729;DHT22;18309;43.658;1.312;2024-01-30T00:15:54;12.70;99.90
31729;DHT22;18309;43.658;1.312;2024-01-30T00:18:20;12.70;99.90
31729;DHT22;18309;43.658;1.312;2024-01-30T00:20:46;12.70;99.90
31729;DHT22;18309;43.658;1.312;2024-01-30T00:23:13;12.70;99.90
31729;DHT22;18309;43.658;1.312;2024-01-30T00:25:38;12.70;99.90
31729;DHT22;18309;43.658;1.312;2024-01-30T00:28:04;12.70;99.90
31729;DHT22;18309;43.658;1.312;2024-01-30T00:30:30;12.70;99.90
31729;DHT22;18309;43.658;1.312;2024-01-30T00:32:56;12.70;99.90
31729;DHT22;18309;43.658;1.312;2024-01-30T00:35:22;12.70;99.90
31729;DHT22;18309;43.658;1.312;2024-01-30T00:37:48;12.60;99.90
31729;DHT22;18309;43.658;1.312;2024-01-30T00:40:14;12.60;99.90
31729;DHT22;18309;43.658;1.312;2024-01-30T00:42:44;12.60;99.90
31729;DHT22;18309;43.658;1.312;2024-01-30T00:45:16;12.60;99.90
31729;DHT22;18309;43.658;1.312;2024-01-30T00:47:42;12.60;99.90
31729;DHT22;18309;43.658;1.312;2024-01-30T00:50:09;12.60;99.90
31729;DHT22;18309;43.658;1.312;2024-01-30T00:52:35;12.60;99.90
31729;DHT22;18309;43.658;1.312;2024-01-30T00:55:01;12.60;99.90
31729;DHT22;18309;43.658;1.312;2024-01-30T00:57:28;12.60;99.90
31729;DHT22;18309;43.658;1.312;2024-01-30T00:59:54;12.60;99.90
31729;DHT22;18309;43.658;1.312;2024-01-30T01:02:20;12.60;99.90
31729;DHT22;18309;43.658;1.312;2024-01-30T01:04:45;12.60;99.90
31729;DHT22;18309;43.658;1.312;2024-01-30T01:07:11;12.60;99.90
31729;DHT22;18309;43.658;1.312;2024-01-30T01:09:37;12.60;99.90
31729;DHT22;18309;43.658;1.312;2024-01-30T01:12:03;12.60;99.90
31729;DHT22;18309;43.658;1.312;2024-01-30T01:14:29;12.60;99.90
31729;DHT22;18309;43.658;1.312;2024-01-30T01:16:55;12.60;99.90
31729;DHT22;18309;43.658;1.312;2024-01-30T01:19:21;12.50;99.90
31729;DHT22;18309;43.658;1.312;2024-01-30T01:21:48;12.50;99.90
31729;DHT22;18309;43.658;1.312;2024-01-30T01:24:14;12.60;99.90
31729;DHT22;18309;43.658;1.312;2024-01-30T01:26:39;12.60;99.90
31729;DHT22;18309;43.658;1.312;2024-01-30T01:29:06;12.60;99.90
31729;DHT22;18309;43.658;1.312;2024-01-30T01:31:37;12.50;99.90
31729;DHT22;18309;43.658;1.312;2024-01-30T01:34:12;12.60;99.90
31729;DHT22;18309;43.658;1.312;2024-01-30T01:36:39;12.50;99.90
31729;DHT22;18309;43.658;1.312;2024-01-30T01:39:05;12.50;99.90
31729;DHT22;18309;43.658;1.312;2024-01-30T01:41:31;12.50;99.90
31729;DHT22;18309;43.658;1.312;2024-01-30T01:43:57;12.50;99.90
31729;DHT22;18309;43.658;1.312;2024-01-30T01:46:26;12.50;99.90
31729;DHT22;18309;43.658;1.312;2024-01-30T01:48:51;12.50;99.90
31729;DHT22;18309;43.658;1.312;2024-01-30T01:51:19;12.50;99.90
31729;DHT22;18309;43.658;1.312;2024-01-30T01:53:45;12.50;99.90
31729;DHT22;18309;43.658;1.312;2024-01-30T01:56:11;12.50;99.90
31729;DHT22;18309;43.658;1.312;2024-01-30T01:58:37;12.50;99.90
31729;DHT22;18309;43.658;1.312;2024-01-30T02:01:04;12.50;99.90
31729;DHT22;18309;43.658;1.312;2024-01-30T02:03:30;12.50;99.90
31729;DHT22;18309;43.658;1.312;2024-01-30T02:05:56;12.50;99.90
31729;DHT22;18309;43.658;1.312;2024-01-30T02:08:23;12.50;99.90
31729;DHT22;18309;43.658;1.312;2024-01-30T02:10:51;12.50;99.90
31729;DHT22;18309;43.658;1.312;2024-01-30T02:13:16;12.50;99.90
31729;DHT22;18309;43.658;1.312;2024-01-30T02:15:42;12.50;99.90
31729;DHT22;18309;43.658;1.312;2024-01-30T02:18:07;12.40;99.90
31729;DHT22;18309;43.658;1.312;2024-01-30T02:20:35;12.50;99.90
31729;DHT22;18309;43.658;1.312;2024-01-30T02:23:02;12.50;99.90
31729;DHT22;18309;43.658;1.312;2024-01-30T02:25:38;12.40;99.90
31729;DHT22;18309;43.658;1.312;2024-01-30T02:28:04;12.40;99.90
31729;DHT22;18309;43.658;1.312;2024-01-30T02:30:29;12.50;99.90
31729;DHT22;18309;43.658;1.312;2024-01-30T02:32:55;12.50;99.90
31729;DHT22;18309;43.658;1.312;2024-01-30T02:35:21;12.50;99.90
31729;DHT22;18309;43.658;1.312;2024-01-30T02:37:46;12.50;99.90
31729;DHT22;18309;43.658;1.312;2024-01-30T02:40:12;12.50;99.90
31729;DHT22;18309;43.658;1.312;2024-01-30T02:42:38;12.50;99.90
31729;DHT22;18309;43.658;1.312;2024-01-30T02:45:05;12.40;99.90
31729;DHT22;18309;43.658;1.312;2024-01-30T02:47:31;12.40;99.90
31729;DHT22;18309;43.658;1.312;2024-01-30T02:49:57;12.40;99.90
31729;DHT22;18309;43.658;1.312;2024-01-30T02:52:23;12.50;99.90
31729;DHT22;18309;43.658;1.312;2024-01-30T02:54:48;12.40;99.90
31729;DHT22;18309;43.658;1.312;2024-01-30T02:57:15;12.40;99.90
31729;DHT22;18309;43.658;1.312;2024-01-30T02:59:42;12.40;99.90
31729;DHT22;18309;43.658;1.312;2024-01-30T03:02:08;12.50;99.90
31729;DHT22;18309;43.658;1.312;2024-01-30T03:04:34;12.50;99.90
31729;DHT22;18309;43.658;1.312;2024-01-30T03:06:59;12.40;99.90
31729;DHT22;18309;43.658;1.312;2024-01-30T03:09:25;12.50;99.90
31729;DHT22;18309;43.658;1.312;2024-01-30T03:11:51;12.40;99.90
31729;DHT22;18309;43.658;1.312;2024-01-30T03:14:16;12.40;99.90
31729;DHT22;18309;43.658;1.312;2024-01-30T03:16:42;12.40;99.90
31729;DHT22;18309;43.658;1.312;2024-01-30T03:19:08;12.40;99.90
31729;DHT22;18309;43.658;1.312;2024-01-30T03:21:35;12.40;99.90
31729;DHT22;18309;43.658;1.312;2024-01-30T03:24:00;12.40;99.90
31729;DHT22;18309;43.658;1.312;2024-01-30T03:26:26;12.40;99.90
31729;DHT22;18309;43.658;1.312;2024-01-30T03:28:52;12.40;99.90
31729;DHT22;18309;43.658;1.312;2024-01-30T03:31:17;12.40;99.90
31729;DHT22;18309;43.658;1.312;2024-01-30T03:33:43;12.40;99.90
31729;DHT22;18309;43.658;1.312;2024-01-30T03:36:09;12.40;99.90
31729;DHT22;18309;43.658;1.312;2024-01-30T03:38:35;12.40;99.90
31729;DHT22;18309;43.658;1.312;2024-01-30T03:41:01;12.40;99.90
31729;DHT22;18309;43.658;1.312;2024-01-30T03:43:27;12.40;99.90
31729;DHT22;18309;43.658;1.312;2024-01-30T03:45:52;12.40;99.90
31729;DHT22;18309;43.658;1.312;2024-01-30T03:48:20;12.40;99.90
31729;DHT22;18309;43.658;1.312;2024-01-30T03:50:46;12.40;99.90
31729;DHT22;18309;43.658;1.312;2024-01-30T03:53:13;12.40;99.90
31729;DHT22;18309;43.658;1.312;2024-01-30T03:55:38;12.40;99.90
31729;DHT22;18309;43.658;1.312;2024-01-30T03:58:04;12.40;99.90
31729;DHT22;18309;43.658;1.312;2024-01-30T04:00:30;12.40;99.90
31729;DHT22;18309;43.658;1.312;2024-01-30T04:02:55;12.40;99.90
31729;DHT22;18309;43.658;1.312;2024-01-30T04:05:22;12.40;99.90
31729;DHT22;18309;43.658;1.312;2024-01-30T04:07:48;12.40;99.90
31729;DHT22;18309;43.658;1.312;2024-01-30T04:10:15;12.40;99.90
31729;DHT22;18309;43.658;1.312;2024-01-30T04:12:41;12.40;99.90
31729;DHT22;18309;43.658;1.312;2024-01-30T04:15:10;12.40;99.90
31729;DHT22;18309;43.658;1.312;2024-01-30T04:17:36;12.40;99.90
31729;DHT22;18309;43.658;1.312;2024-01-30T04:20:02;12.40;99.90
31729;DHT22;18309;43.658;1.312;2024-01-30T04:22:28;12.40;99.90
31729;DHT22;18309;43.658;1.312;2024-01-30T04:24:54;12.40;99.90
31729;DHT22;18309;43.658;1.312;2024-01-30T04:27:21;12.40;99.90
31729;DHT22;18309;43.658;1.312;2024-01-30T04:29:46;12.40;99.90
31729;DHT22;18309;43.658;1.312;2024-01-30T04:32:13;12.40;99.90
31729;DHT22;18309;43.658;1.312;2024-01-30T04:34:38;12.40;99.90
31729;DHT22;18309;43.658;1.312;2024-01-30T04:37:05;12.40;99.90
31729;DHT22;18309;43.658;1.312;2024-01-30T04:39:35;12.40;99.90
31729;DHT22;18309;43.658;1.312;2024-01-30T04:42:02;12.40;99.90
31729;DHT22;18309;43.658;1.312;2024-01-30T04:44:29;12.40;99.90
31729;DHT22;18309;43.658;1.312;2024-01-30T04:46:55;12.40;99.90
31729;DHT22;18309;43.658;1.312;2024-01-30T04:49:24;12.40;99.90
31729;DHT22;18309;43.658;1.312;2024-01-30T04:51:53;12.40;99.90
31729;DHT22;18309;43.658;1.312;2024-01-30T04:54:18;12.40;99.90
31729;DHT22;18309;43.658;1.312;2024-01-30T04:56:44;12.40;99.90
31729;DHT22;18309;43.658;1.312;2024-01-30T04:59:10;12.40;99.90
31729;DHT22;18309;43.658;1.312;2024-01-30T05:01:36;12.30;99.90
31729;DHT22;18309;43.658;1.312;2024-01-30T05:04:01;12.30;99.90
31729;DHT22;18309;43.658;1.312;2024-01-30T05:06:29;12.30;99.90
31729;DHT22;18309;43.658;1.312;2024-01-30T05:08:55;12.30;99.90
31729;DHT22;18309;43.658;1.312;2024-01-30T05:11:21;12.30;99.90
31729;DHT22;18309;43.658;1.312;2024-01-30T05:13:47;12.30;99.90
31729;DHT22;18309;43.658;1.312;2024-01-30T05:16:13;12.30;99.90
31729;DHT22;18309;43.658;1.312;2024-01-30T05:18:39;12.30;99.90
31729;DHT22;18309;43.658;1.312;2024-01-30T05:21:05;12.30;99.90
31729;DHT22;18309;43.658;1.312;2024-01-30T05:23:33;12.30;99.90
31729;DHT22;18309;43.658;1.312;2024-01-30T05:25:59;12.30;99.90
31729;DHT22;18309;43.658;1.312;2024-01-30T05:28:26;12.20;99.90
31729;DHT22;18309;43.658;1.312;2024-01-30T05:30:53;12.20;99.90
31729;DHT22;18309;43.658;1.312;2024-01-30T05:33:18;12.20;99.90
31729;DHT22;18309;43.658;1.312;2024-01-30T05:35:44;12.20;99.90
31729;DHT22;18309;43.658;1.312;2024-01-30T05:38:11;12.20;99.90
31729;DHT22;18309;43.658;1.312;2024-01-30T05:40:38;12.20;99.90
31729;DHT22;18309;43.658;1.312;2024-01-30T05:43:03;12.20;99.90
31729;DHT22;18309;43.658;1.312;2024-01-30T05:45:30;12.20;99.90
31729;DHT22;18309;43.658;1.312;2024-01-30T05:47:56;12.20;99.90
31729;DHT22;18309;43.658;1.312;2024-01-30T05:50:22;12.20;99.90
31729;DHT22;18309;43.658;1.312;2024-01-30T05:52:48;12.20;99.90
31729;DHT22;18309;43.658;1.312;2024-01-30T05:55:14;12.20;99.90
31729;DHT22;18309;43.658;1.312;2024-01-30T05:57:40;12.20;99.90
31729;DHT22;18309;43.658;1.312;2024-01-30T06:00:07;12.20;99.90
31729;DHT22;18309;43.658;1.312;2024-01-30T06:02:34;12.20;99.90
31729;DHT22;18309;43.658;1.312;2024-01-30T06:05:00;12.20;99.90
31729;DHT22;18309;43.658;1.312;2024-01-30T06:07:26;12.20;99.90
31729;DHT22;18309;43.658;1.312;2024-01-30T06:09:51;12.20;99.90
31729;DHT22;18309;43.658;1.312;2024-01-30T06:12:17;12.20;99.90
31729;DHT22;18309;43.658;1.312;2024-01-30T06:14:43;12.20;99.90
31729;DHT22;18309;43.658;1.312;2024-01-30T06:17:09;12.10;99.90
31729;DHT22;18309;43.658;1.312;2024-01-30T06:19:35;12.10;99.90
31729;DHT22;18309;43.658;1.312;2024-01-30T06:22:00;12.10;99.90
31729;DHT22;18309;43.658;1.312;2024-01-30T06:24:26;12.10;99.90
31729;DHT22;18309;43.658;1.312;2024-01-30T06:26:53;12.10;99.90
31729;DHT22;18309;43.658;1.312;2024-01-30T06:29:20;12.10;99.90
31729;DHT22;18309;43.658;1.312;2024-01-30T06:31:46;12.20;99.90
31729;DHT22;18309;43.658;1.312;2024-01-30T06:34:12;12.10;99.90
31729;DHT22;18309;43.658;1.312;2024-01-30T06:36:38;12.10;99.90
31729;DHT22;18309;43.658;1.312;2024-01-30T06:39:04;12.10;99.90
31729;DHT22;18309;43.658;1.312;2024-01-30T06:41:31;12.20;99.90
31729;DHT22;18309;43.658;1.312;2024-01-30T06:43:56;12.10;99.90
31729;DHT22;18309;43.658;1.312;2024-01-30T06:46:22;12.10;99.90
31729;DHT22;18309;43.658;1.312;2024-01-30T06:48:48;12.10;99.90
31729;DHT22;18309;43.658;1.312;2024-01-30T06:51:13;12.00;99.90
31729;DHT22;18309;43.658;1.312;2024-01-30T06:53:40;12.00;99.90
31729;DHT22;18309;43.658;1.312;2024-01-30T06:56:06;12.00;99.90
31729;DHT22;18309;43.658;1.312;2024-01-30T06:58:31;12.00;99.90
31729;DHT22;18309;43.658;1.312;2024-01-30T07:00:58;12.00;99.90
31729;DHT22;18309;43.658;1.312;2024-01-30T07:03:24;12.00;99.90
31729;DHT22;18309;43.658;1.312;2024-01-30T07:05:50;12.10;99.90
31729;DHT22;18309;43.658;1.312;2024-01-30T07:08:16;12.10;99.90
31729;DHT22;18309;43.658;1.312;2024-01-30T07:10:43;12.10;99.90
31729;DHT22;18309;43.658;1.312;2024-01-30T07:13:12;12.10;99.90
31729;DHT22;18309;43.658;1.312;2024-01-30T07:15:39;12.10;99.90
31729;DHT22;18309;43.658;1.312;2024-01-30T07:18:05;12.10;99.90
31729;DHT22;18309;43.658;1.312;2024-01-30T07:20:32;12.10;99.90
31729;DHT22;18309;43.658;1.312;2024-01-30T07:22:58;12.20;99.90
31729;DHT22;18309;43.658;1.312;2024-01-30T07:25:24;12.50;99.90
31729;DHT22;18309;43.658;1.312;2024-01-30T07:27:54;12.40;99.90
31729;DHT22;18309;43.658;1.312;2024-01-30T07:30:20;12.50;99.90
31729;DHT22;18309;43.658;1.312;2024-01-30T07:32:46;12.60;99.90
31729;DHT22;18309;43.658;1.312;2024-01-30T07:35:13;12.30;99.90
31729;DHT22;18309;43.658;1.312;2024-01-30T07:37:40;12.20;99.90
31729;DHT22;18309;43.658;1.312;2024-01-30T07:40:07;12.20;99.90
31729;DHT22;18309;43.658;1.312;2024-01-30T07:42:33;12.10;99.90
31729;DHT22;18309;43.658;1.312;2024-01-30T07:45:00;11.90;99.90
31729;DHT22;18309;43.658;1.312;2024-01-30T07:47:26;11.90;99.90
31729;DHT22;18309;43.658;1.312;2024-01-30T07:49:53;11.80;99.90
31729;DHT22;18309;43.658;1.312;2024-01-30T07:52:19;11.80;99.90
31729;DHT22;18309;43.658;1.312;2024-01-30T07:54:45;11.80;99.90
31729;DHT22;18309;43.658;1.312;2024-01-30T07:57:11;11.80;99.90
31729;DHT22;18309;43.658;1.312;2024-01-30T07:59:37;11.70;99.90
31729;DHT22;18309;43.658;1.312;2024-01-30T08:02:03;11.70;99.90
31729;DHT22;18309;43.658;1.312;2024-01-30T08:04:29;11.80;99.90
31729;DHT22;18309;43.658;1.312;2024-01-30T08:06:54;11.80;99.90
31729;DHT22;18309;43.658;1.312;2024-01-30T08:09:20;11.80;99.90
31729;DHT22;18309;43.658;1.312;2024-01-30T08:11:46;11.80;99.90
31729;DHT22;18309;43.658;1.312;2024-01-30T08:14:11;11.80;99.90
31729;DHT22;18309;43.658;1.312;2024-01-30T08:16:40;11.90;99.90
31729;DHT22;18309;43.658;1.312;2024-01-30T08:19:07;11.80;99.90
31729;DHT22;18309;43.658;1.312;2024-01-30T08:21:34;11.90;99.90
31729;DHT22;18309;43.658;1.312;2024-01-30T08:24:03;11.80;99.90
31729;DHT22;18309;43.658;1.312;2024-01-30T08:26:34;11.90;99.90
31729;DHT22;18309;43.658;1.312;2024-01-30T08:29:01;11.90;99.90
31729;DHT22;18309;43.658;1.312;2024-01-30T08:31:26;11.90;99.90
31729;DHT22;18309;43.658;1.312;2024-01-30T08:33:53;11.90;99.90
31729;DHT22;18309;43.658;1.312;2024-01-30T08:36:20;12.00;99.90
31729;DHT22;18309;43.658;1.312;2024-01-30T08:38:45;12.00;99.90
31729;DHT22;18309;43.658;1.312;2024-01-30T08:41:11;12.10;99.90
31729;DHT22;18309;43.658;1.312;2024-01-30T08:43:37;12.10;99.90
31729;DHT22;18309;43.658;1.312;2024-01-30T08:46:03;12.20;99.90
31729;DHT22;18309;43.658;1.312;2024-01-30T08:48:29;12.20;99.90
31729;DHT22;18309;43.658;1.312;2024-01-30T08:50:54;12.30;99.90
31729;DHT22;18309;43.658;1.312;2024-01-30T08:53:20;12.40;99.90
31729;DHT22;18309;43.658;1.312;2024-01-30T08:55:46;12.40;99.90
31729;DHT22;18309;43.658;1.312;2024-01-30T08:58:12;12.40;99.90
31729;DHT22;18309;43.658;1.312;2024-01-30T09:00:38;12.50;99.90
31729;DHT22;18309;43.658;1.312;2024-01-30T09:03:03;12.50;99.90
31729;DHT22;18309;43.658;1.312;2024-01-30T09:05:29;12.50;99.90
31729;DHT22;18309;43.658;1.312;2024-01-30T09:07:55;12.50;99.90
31729;DHT22;18309;43.658;1.312;2024-01-30T09:10:21;12.50;99.90
31729;DHT22;18309;43.658;1.312;2024-01-30T09:12:47;12.50;99.90
31729;DHT22;18309;43.658;1.312;2024-01-30T09:15:13;12.50;99.90
31729;DHT22;18309;43.658;1.312;2024-01-30T09:17:39;12.50;99.90
31729;DHT22;18309;43.658;1.312;2024-01-30T09:20:06;12.50;99.90
31729;DHT22;18309;43.658;1.312;2024-01-30T09:22:33;12.60;99.90
31729;DHT22;18309;43.658;1.312;2024-01-30T09:24:59;12.60;99.90
31729;DHT22;18309;43.658;1.312;2024-01-30T09:27:25;12.60;99.90
31729;DHT22;18309;43.658;1.312;2024-01-30T09:29:50;12.60;99.90
31729;DHT22;18309;43.658;1.312;2024-01-30T09:32:16;12.70;99.90
31729;DHT22;18309;43.658;1.312;2024-01-30T09:34:43;12.70;99.90
31729;DHT22;18309;43.658;1.312;2024-01-30T09:37:08;12.70;99.90
31729;DHT22;18309;43.658;1.312;2024-01-30T09:39:34;12.70;99.90
31729;DHT22;18309;43.658;1.312;2024-01-30T09:44:51;12.80;99.90
31729;DHT22;18309;43.658;1.312;2024-01-30T09:47:18;12.80;99.90
31729;DHT22;18309;43.658;1.312;2024-01-30T09:49:44;12.90;99.90
31729;DHT22;18309;43.658;1.312;2024-01-30T09:52:11;12.90;99.90
31729;DHT22;18309;43.658;1.312;2024-01-30T09:54:38;13.00;99.90
31729;DHT22;18309;43.658;1.312;2024-01-30T09:57:04;13.00;99.90
31729;DHT22;18309;43.658;1.312;2024-01-30T09:59:31;13.00;99.90
31729;DHT22;18309;43.658;1.312;2024-01-30T10:01:57;13.00;99.90
31729;DHT22;18309;43.658;1.312;2024-01-30T10:04:23;13.10;99.90
31729;DHT22;18309;43.658;1.312;2024-01-30T10:06:51;13.10;99.90
31729;DHT22;18309;43.658;1.312;2024-01-30T10:09:18;13.20;99.90
31729;DHT22;18309;43.658;1.312;2024-01-30T10:11:44;13.20;99.90
31729;DHT22;18309;43.658;1.312;2024-01-30T10:14:09;13.20;99.90
31729;DHT22;18309;43.658;1.312;2024-01-30T10:16:35;13.30;99.90
31729;DHT22;18309;43.658;1.312;2024-01-30T10:19:01;13.30;99.90
31729;DHT22;18309;43.658;1.312;2024-01-30T10:21:27;13.40;99.90
31729;DHT22;18309;43.658;1.312;2024-01-30T10:23:54;13.40;99.90
31729;DHT22;18309;43.658;1.312;2024-01-30T10:26:20;13.50;99.90
31729;DHT22;18309;43.658;1.312;2024-01-30T10:28:47;13.50;99.90
31729;DHT22;18309;43.658;1.312;2024-01-30T10:31:16;13.60;99.90
31729;DHT22;18309;43.658;1.312;2024-01-30T10:33:44;13.60;99.90
31729;DHT22;18309;43.658;1.312;2024-01-30T10:36:13;13.60;99.90
31729;DHT22;18309;43.658;1.312;2024-01-30T10:38:42;13.70;99.90
31729;DHT22;18309;43.658;1.312;2024-01-30T10:41:14;13.70;99.90
31729;DHT22;18309;43.658;1.312;2024-01-30T10:43:41;13.70;99.90
31729;DHT22;18309;43.658;1.312;2024-01-30T10:46:16;13.70;99.90
31729;DHT22;18309;43.658;1.312;2024-01-30T10:48:43;13.80;99.90
31729;DHT22;18309;43.658;1.312;2024-01-30T10:51:13;13.90;99.90
31729;DHT22;18309;43.658;1.312;2024-01-30T10:53:40;14.00;99.90
31729;DHT22;18309;43.658;1.312;2024-01-30T10:56:06;14.00;99.90
31729;DHT22;18309;43.658;1.312;2024-01-30T10:58:33;14.10;99.90
31729;DHT22;18309;43.658;1.312;2024-01-30T11:00:59;14.10;99.90
31729;DHT22;18309;43.658;1.312;2024-01-30T11:03:26;14.20;99.90
31729;DHT22;18309;43.658;1.312;2024-01-30T11:05:52;14.20;99.90
31729;DHT22;18309;43.658;1.312;2024-01-30T11:08:24;14.30;99.90
31729;DHT22;18309;43.658;1.312;2024-01-30T11:10:55;14.30;99.90
31729;DHT22;18309;43.658;1.312;2024-01-30T11:13:21;14.30;99.90
31729;DHT22;18309;43.658;1.312;2024-01-30T11:15:48;14.40;99.90
31729;DHT22;18309;43.658;1.312;2024-01-30T11:18:26;14.40;99.90
31729;DHT22;18309;43.658;1.312;2024-01-30T11:20:56;14.50;99.90
31729;DHT22;18309;43.658;1.312;2024-01-30T11:23:23;14.60;99.90
31729;DHT22;18309;43.658;1.312;2024-01-30T11:25:48;14.70;99.90
31729;DHT22;18309;43.658;1.312;2024-01-30T11:28:14;14.70;99.90
31729;DHT22;18309;43.658;1.312;2024-01-30T11:30:41;14.70;99.90
31729;DHT22;18309;43.658;1.312;2024-01-30T11:33:14;14.70;99.90
31729;DHT22;18309;43.658;1.312;2024-01-30T11:38:07;14.80;99.90
31729;DHT22;18309;43.658;1.312;2024-01-30T11:40:34;14.80;99.90
31729;DHT22;18309;43.658;1.312;2024-01-30T11:43:03;14.80;99.90
31729;DHT22;18309;43.658;1.312;2024-01-30T11:45:33;14.80;99.90
31729;DHT22;18309;43.658;1.312;2024-01-30T11:47:59;14.80;99.90
31729;DHT22;18309;43.658;1.312;2024-01-30T11:50:27;14.80;99.90
31729;DHT22;18309;43.658;1.312;2024-01-30T11:52:54;14.70;99.90
31729;DHT22;18309;43.658;1.312;2024-01-30T11:55:20;14.80;99.90
31729;DHT22;18309;43.658;1.312;2024-01-30T11:57:46;14.80;99.90
31729;DHT22;18309;43.658;1.312;2024-01-30T12:00:16;14.80;99.90
31729;DHT22;18309;43.658;1.312;2024-01-30T12:02:44;14.80;99.90
31729;DHT22;18309;43.658;1.312;2024-01-30T12:05:10;14.80;99.90
31729;DHT22;18309;43.658;1.312;2024-01-30T12:07:36;14.80;99.90
31729;DHT22;18309;43.658;1.312;2024-01-30T12:10:03;15.00;99.90
31729;DHT22;18309;43.658;1.312;2024-01-30T12:12:32;15.00;99.90
31729;DHT22;18309;43.658;1.312;2024-01-30T12:14:58;15.00;99.90
31729;DHT22;18309;43.658;1.312;2024-01-30T12:17:30;15.00;99.90
31729;DHT22;18309;43.658;1.312;2024-01-30T12:20:07;15.10;99.90
31729;DHT22;18309;43.658;1.312;2024-01-30T12:22:37;15.20;99.90
31729;DHT22;18309;43.658;1.312;2024-01-30T12:25:13;15.20;99.90
31729;DHT22;18309;43.658;1.312;2024-01-30T12:27:41;15.20;99.90
31729;DHT22;18309;43.658;1.312;2024-01-30T12:30:12;15.30;99.90
31729;DHT22;18309;43.658;1.312;2024-01-30T12:32:42;15.40;99.90
31729;DHT22;18309;43.658;1.312;2024-01-30T12:35:15;15.60;99.90
31729;DHT22;18309;43.658;1.312;2024-01-30T12:37:44;15.70;99.90
31729;DHT22;18309;43.658;1.312;2024-01-30T12:40:11;15.70;99.90
31729;DHT22;18309;43.658;1.312;2024-01-30T12:42:43;15.80;99.90
31729;DHT22;18309;43.658;1.312;2024-01-30T12:45:17;15.90;99.90
31729;DHT22;18309;43.658;1.312;2024-01-30T12:47:48;16.00;99.90
31729;DHT22;18309;43.658;1.312;2024-01-30T12:50:15;16.10;99.90
31729;DHT22;18309;43.658;1.312;2024-01-30T12:52:45;16.20;99.90
31729;DHT22;18309;43.658;1.312;2024-01-30T12:55:10;16.30;99.90
31729;DHT22;18309;43.658;1.312;2024-01-30T12:57:36;16.40;99.90
31729;DHT22;18309;43.658;1.312;2024-01-30T13:00:02;16.50;99.90
31729;DHT22;18309;43.658;1.312;2024-01-30T13:02:28;16.60;99.90
31729;DHT22;18309;43.658;1.312;2024-01-30T13:05:00;16.70;99.90
31729;DHT22;18309;43.658;1.312;2024-01-30T13:07:25;16.90;99.90
31729;DHT22;18309;43.658;1.312;2024-01-30T13:09:52;16.90;99.90
31729;DHT22;18309;43.658;1.312;2024-01-30T13:12:17;17.00;99.90
31729;DHT22;18309;43.658;1.312;2024-01-30T13:14:43;16.90;99.90
31729;DHT22;18309;43.658;1.312;2024-01-30T13:17:12;16.90;99.90
31729;DHT22;18309;43.658;1.312;2024-01-30T13:19:40;17.00;99.90
31729;DHT22;18309;43.658;1.312;2024-01-30T13:22:07;17.10;99.90
31729;DHT22;18309;43.658;1.312;2024-01-30T13:24:33;17.00;99.90
31729;DHT22;18309;43.658;1.312;2024-01-30T13:26:58;17.20;99.90
31729;DHT22;18309;43.658;1.312;2024-01-30T13:29:24;17.40;99.90
31729;DHT22;18309;43.658;1.312;2024-01-30T13:31:50;17.50;99.90
31729;DHT22;18309;43.658;1.312;2024-01-30T13:34:17;17.60;99.90
31729;DHT22;18309;43.658;1.312;2024-01-30T13:36:43;17.60;99.90
31729;DHT22;18309;43.658;1.312;2024-01-30T13:39:10;17.60;99.90
31729;DHT22;18309;43.658;1.312;2024-01-30T13:41:38;17.70;99.90
31729;DHT22;18309;43.658;1.312;2024-01-30T13:44:04;17.80;99.90
31729;DHT22;18309;43.658;1.312;2024-01-30T13:46:35;17.90;99.90
31729;DHT22;18309;43.658;1.312;2024-01-30T13:49:01;17.90;99.90
31729;DHT22;18309;43.658;1.312;2024-01-30T13:51:28;18.00;99.90
31729;DHT22;18309;43.658;1.312;2024-01-30T13:53:54;18.10;99.90
31729;DHT22;18309;43.658;1.312;2024-01-30T13:56:22;18.10;99.90
31729;DHT22;18309;43.658;1.312;2024-01-30T13:58:49;18.20;99.90
31729;DHT22;18309;43.658;1.312;2024-01-30T14:01:17;18.30;99.90
31729;DHT22;18309;43.658;1.312;2024-01-30T14:03:43;18.50;99.90
31729;DHT22;18309;43.658;1.312;2024-01-30T14:06:10;18.50;99.60
31729;DHT22;18309;43.658;1.312;2024-01-30T14:08:35;18.60;99.70
31729;DHT22;18309;43.658;1.312;2024-01-30T14:11:01;18.60;99.90
31729;DHT22;18309;43.658;1.312;2024-01-30T14:13:27;18.80;99.50
31729;DHT22;18309;43.658;1.312;2024-01-30T14:15:53;18.80;98.50
31729;DHT22;18309;43.658;1.312;2024-01-30T14:18:19;18.80;98.90
31729;DHT22;18309;43.658;1.312;2024-01-30T14:20:45;19.00;98.40
31729;DHT22;18309;43.658;1.312;2024-01-30T14:23:10;19.00;97.80
31729;DHT22;18309;43.658;1.312;2024-01-30T14:25:36;19.00;97.80
31729;DHT22;18309;43.658;1.312;2024-01-30T14:28:02;19.20;97.80
31729;DHT22;18309;43.658;1.312;2024-01-30T14:30:28;19.40;97.40
31729;DHT22;18309;43.658;1.312;2024-01-30T14:32:53;19.50;97.00
31729;DHT22;18309;43.658;1.312;2024-01-30T14:35:19;19.80;96.90
31729;DHT22;18309;43.658;1.312;2024-01-30T14:37:45;19.70;96.60
31729;DHT22;18309;43.658;1.312;2024-01-30T14:40:11;20.00;96.40
31729;DHT22;18309;43.658;1.312;2024-01-30T14:42:37;20.00;96.30
31729;DHT22;18309;43.658;1.312;2024-01-30T14:45:04;19.90;96.20
31729;DHT22;18309;43.658;1.312;2024-01-30T14:47:30;20.00;96.10
31729;DHT22;18309;43.658;1.312;2024-01-30T14:49:57;20.20;95.30
31729;DHT22;18309;43.658;1.312;2024-01-30T14:52:23;20.60;94.70
31729;DHT22;18309;43.658;1.312;2024-01-30T14:54:50;21.00;93.90
31729;DHT22;18309;43.658;1.312;2024-01-30T14:57:16;21.50;93.00
31729;DHT22;18309;43.658;1.312;2024-01-30T14:59:42;21.80;92.20
31729;DHT22;18309;43.658;1.312;2024-01-30T15:02:07;22.80;90.10
31729;DHT22;18309;43.658;1.312;2024-01-30T15:04:33;23.40;87.80
31729;DHT22;18309;43.658;1.312;2024-01-30T15:06:59;24.70;83.60
31729;DHT22;18309;43.658;1.312;2024-01-30T15:09:25;25.80;80.00
31729;DHT22;18309;43.658;1.312;2024-01-30T15:11:52;26.40;77.20
31729;DHT22;18309;43.658;1.312;2024-01-30T15:14:18;27.00;75.60
31729;DHT22;18309;43.658;1.312;2024-01-30T15:16:44;27.40;74.80
31729;DHT22;18309;43.658;1.312;2024-01-30T15:19:09;27.90;72.10
31729;DHT22;18309;43.658;1.312;2024-01-30T15:21:35;27.90;72.20
31729;DHT22;18309;43.658;1.312;2024-01-30T15:24:02;28.30;71.50
31729;DHT22;18309;43.658;1.312;2024-01-30T15:26:28;28.40;70.60
31729;DHT22;18309;43.658;1.312;2024-01-30T15:28:54;28.40;71.20
31729;DHT22;18309;43.658;1.312;2024-01-30T15:31:20;27.70;72.30